createdAt,value
2018-05-17T00:01:54.903Z,98634.47
2018-05-17T00:04:22.382Z,98639.52
2018-05-17T00:06:49.962Z,98628.54
2018-05-17T00:09:17.443Z,98621.23
2018-05-17T00:11:44.949Z,98623.56
2018-05-17T00:14:12.435Z,98626.09
2018-05-17T00:16:39.930Z,98623.61
2018-05-17T00:19:07.399Z,98625.25
2018-05-17T00:21:35.017Z,98627.92
2018-05-17T00:24:02.488Z,98622.45
2018-05-17T00:26:30.030Z,98620.94
2018-05-17T00:28:57.499Z,98622.32
2018-05-17T00:31:24.999Z,98623.49
2018-05-17T00:33:52.598Z,98621.27
2018-05-17T00:36:20.178Z,98621.23
2018-05-17T00:38:47.663Z,98621.84
2018-05-17T00:41:15.283Z,98617.20
2018-05-17T00:43:42.848Z,98608.40
2018-05-17T00:46:10.346Z,98606.46
2018-05-17T00:48:37.819Z,98611.64
2018-05-17T00:51:05.424Z,98609.00
2018-05-17T00:53:32.991Z,98607.54
2018-05-17T00:56:00.549Z,98598.64
2018-05-17T00:58:28.099Z,98603.13
2018-05-17T01:00:55.628Z,98604.50
2018-05-17T01:03:23.098Z,98608.62
2018-05-17T01:05:50.566Z,98615.44
2018-05-17T01:08:18.078Z,98617.55
2018-05-17T01:10:45.598Z,98617.14
2018-05-17T01:13:13.154Z,98622.53
2018-05-17T01:15:40.706Z,98629.70
2018-05-17T01:18:08.194Z,98628.44
2018-05-17T01:20:35.666Z,98631.45
2018-05-17T01:23:03.164Z,98625.94
2018-05-17T01:25:30.630Z,98625.77
2018-05-17T01:28:02.302Z,98627.70
2018-05-17T01:30:29.771Z,98629.02
2018-05-17T01:32:57.262Z,98635.34
2018-05-17T01:35:24.755Z,98634.41
2018-05-17T01:38:04.110Z,98631.59
2018-05-17T01:40:31.606Z,98636.20
2018-05-17T01:42:59.226Z,98634.85
2018-05-17T01:45:26.698Z,98635.16
2018-05-17T01:47:54.196Z,98634.36
2018-05-17T01:50:21.677Z,98637.95
2018-05-17T01:52:49.262Z,98631.11
2018-05-17T01:55:16.750Z,98625.21
2018-05-17T01:57:44.238Z,98624.23
2018-05-17T02:00:11.769Z,98623.66
2018-05-17T02:02:39.261Z,98626.02
2018-05-17T02:05:07.766Z,98633.91
2018-05-17T02:07:35.259Z,98635.88
2018-05-17T02:10:02.742Z,98631.73
2018-05-17T02:12:30.357Z,98639.31
2018-05-17T02:14:57.830Z,98649.64
2018-05-17T02:17:25.349Z,98657.59
2018-05-17T02:19:52.830Z,98661.14
2018-05-17T02:22:20.338Z,98651.03
2018-05-17T02:24:47.851Z,98649.26
2018-05-17T02:27:15.343Z,98644.14
2018-05-17T02:29:42.839Z,98643.11
2018-05-17T02:32:10.335Z,98650.70
2018-05-17T02:34:37.848Z,98646.82
2018-05-17T02:37:05.346Z,98654.77
2018-05-17T02:39:32.851Z,98656.21
2018-05-17T02:42:00.335Z,98659.13
2018-05-17T02:44:27.828Z,98653.53
2018-05-17T02:46:55.294Z,98659.73
2018-05-17T02:49:22.784Z,98665.31
2018-05-17T02:51:50.294Z,98660.83
2018-05-17T02:54:17.791Z,98655.53
2018-05-17T02:56:45.314Z,98648.73
2018-05-17T02:59:12.807Z,98652.34
2018-05-17T03:01:40.329Z,98653.61
2018-05-17T03:04:07.881Z,98656.84
2018-05-17T03:06:35.449Z,98670.13
2018-05-17T03:09:07.005Z,98660.34
2018-05-17T03:11:34.483Z,98661.77
2018-05-17T03:14:01.977Z,98663.84
2018-05-17T03:16:29.459Z,98666.00
2018-05-17T03:18:56.995Z,98659.92
2018-05-17T03:21:24.546Z,98662.16
2018-05-17T03:23:52.082Z,98662.55
2018-05-17T03:26:19.567Z,98655.91
2018-05-17T03:28:47.062Z,98650.59
2018-05-17T03:31:14.542Z,98648.64
2018-05-17T03:33:42.081Z,98645.81
2018-05-17T03:36:09.570Z,98650.44
2018-05-17T03:38:37.118Z,98648.37
2018-05-17T03:41:04.615Z,98643.48
2018-05-17T03:43:32.115Z,98643.67
2018-05-17T03:45:59.621Z,98647.56
2018-05-17T03:48:27.139Z,98655.51
2018-05-17T03:50:54.699Z,98667.08
2018-05-17T03:53:22.179Z,98665.78
2018-05-17T03:55:49.712Z,98669.31
2018-05-17T03:58:17.191Z,98673.80
2018-05-17T04:00:56.750Z,98679.80
2018-05-17T04:03:36.031Z,98675.34
2018-05-17T04:06:15.345Z,98676.80
2018-05-17T04:08:42.826Z,98672.87
2018-05-17T04:11:10.398Z,98670.23
2018-05-17T04:13:37.970Z,98665.75
2018-05-17T04:16:05.525Z,98665.52
2018-05-17T04:18:32.993Z,98670.74
2018-05-17T04:21:04.122Z,98675.18
2018-05-17T04:23:31.723Z,98665.66
2018-05-17T04:25:59.218Z,98670.52
2018-05-17T04:28:26.699Z,98675.18
2018-05-17T04:30:54.259Z,98681.00
2018-05-17T04:33:21.790Z,98684.38
2018-05-17T04:35:49.419Z,98681.55
2018-05-17T04:38:16.938Z,98684.27
2018-05-17T04:40:44.450Z,98681.52
2018-05-17T04:43:11.983Z,98680.45
2018-05-17T04:45:39.514Z,98684.97
2018-05-17T04:48:07.076Z,98684.36
2018-05-17T04:50:34.567Z,98691.06
2018-05-17T04:53:02.039Z,98688.95
2018-05-17T04:55:29.654Z,98691.41
2018-05-17T04:57:57.123Z,98694.53
2018-05-17T05:00:24.624Z,98694.92
2018-05-17T05:02:52.188Z,98700.48
2018-05-17T05:05:19.611Z,98693.85
2018-05-17T05:07:47.158Z,98707.25
2018-05-17T05:10:14.708Z,98708.62
2018-05-17T05:12:42.209Z,98714.33
2018-05-17T05:15:09.724Z,98716.28
2018-05-17T05:17:37.230Z,98715.66
2018-05-17T05:20:04.740Z,98712.84
2018-05-17T05:22:32.238Z,98712.10
2018-05-17T05:24:59.711Z,98718.88
2018-05-17T05:27:27.209Z,98719.19
2018-05-17T05:29:54.763Z,98722.09
2018-05-17T05:32:22.342Z,98723.39
2018-05-17T05:34:49.903Z,98724.66
2018-05-17T05:37:17.492Z,98728.17
2018-05-17T05:39:45.022Z,98724.69
2018-05-17T05:42:12.526Z,98724.31
2018-05-17T05:44:40.021Z,98719.83
2018-05-17T05:47:07.515Z,98715.05
2018-05-17T05:49:35.064Z,98705.58
2018-05-17T05:52:02.615Z,98714.10
2018-05-17T05:54:30.115Z,98715.97
2018-05-17T05:56:57.623Z,98718.73
2018-05-17T05:59:25.095Z,98720.94
2018-05-17T06:01:52.750Z,98721.39
2018-05-17T06:04:20.304Z,98710.56
2018-05-17T06:06:47.858Z,98713.91
2018-05-17T06:09:15.330Z,98716.53
2018-05-17T06:11:42.875Z,98711.94
2018-05-17T06:14:16.302Z,98717.16
2018-05-17T06:16:43.950Z,98720.00
2018-05-17T06:19:11.422Z,98719.55
2018-05-17T06:21:38.968Z,98732.28
2018-05-17T06:24:06.536Z,98729.42
2018-05-17T06:26:34.006Z,98730.06
2018-05-17T06:29:01.538Z,98739.37
2018-05-17T06:31:29.020Z,98732.55
2018-05-17T06:33:56.555Z,98736.45
2018-05-17T06:36:24.023Z,98733.94
2018-05-17T06:38:51.517Z,98740.45
2018-05-17T06:41:19.034Z,98744.83
2018-05-17T06:43:46.530Z,98742.01
2018-05-17T06:46:14.079Z,98743.48
2018-05-17T06:48:41.610Z,98746.12
2018-05-17T06:51:09.184Z,98745.56
2018-05-17T06:53:36.680Z,98748.03
2018-05-17T06:56:04.218Z,98750.91
2018-05-17T06:58:31.749Z,98744.98
2018-05-17T07:00:59.296Z,98742.42
2018-05-17T07:03:26.735Z,98742.92
2018-05-17T07:05:54.202Z,98741.09
2018-05-17T07:08:21.790Z,98745.25
2018-05-17T07:10:49.363Z,98740.92
2018-05-17T07:13:17.020Z,98750.34
2018-05-17T07:15:44.592Z,98744.52
2018-05-17T07:18:12.458Z,98760.01
2018-05-17T07:20:39.726Z,98760.48
2018-05-17T07:23:07.222Z,98759.85
2018-05-17T07:25:34.706Z,98758.49
2018-05-17T07:28:02.202Z,98763.66
2018-05-17T07:30:29.702Z,98764.63
2018-05-17T07:32:57.278Z,98758.19
2018-05-17T07:35:24.747Z,98759.94
2018-05-17T07:37:52.332Z,98756.98
2018-05-17T07:40:19.856Z,98760.48
2018-05-17T07:42:47.337Z,98765.02
2018-05-17T07:45:14.832Z,98758.83
2018-05-17T07:47:42.363Z,98757.98
2018-05-17T07:50:14.190Z,98767.59
2018-05-17T07:52:41.691Z,98777.05
2018-05-17T07:55:09.260Z,98772.80
2018-05-17T07:57:36.763Z,98769.16
2018-05-17T08:00:04.328Z,98773.96
2018-05-17T08:02:31.812Z,98768.62
2018-05-17T08:04:59.312Z,98773.97
2018-05-17T08:07:26.886Z,98775.79
2018-05-17T08:09:54.390Z,98784.85
2018-05-17T08:12:22.823Z,98779.68
2018-05-17T08:14:50.318Z,98778.59
2018-05-17T08:17:17.802Z,98780.70
2018-05-17T08:19:45.297Z,98778.36
2018-05-17T08:22:12.812Z,98790.21
2018-05-17T08:24:40.310Z,98787.67
2018-05-17T08:27:07.782Z,98800.12
2018-05-17T08:29:35.690Z,98786.44
2018-05-17T08:32:03.220Z,98797.80
2018-05-17T08:34:30.702Z,98782.88
2018-05-17T08:36:58.235Z,98790.71
2018-05-17T08:39:25.727Z,98789.25
2018-05-17T08:41:53.203Z,98790.34
2018-05-17T08:44:20.702Z,98789.08
2018-05-17T08:46:48.170Z,98792.73
2018-05-17T08:49:15.730Z,98798.69
2018-05-17T08:51:43.199Z,98800.40
2018-05-17T08:54:10.667Z,98801.34
2018-05-17T08:56:38.163Z,98800.64
2018-05-17T08:59:05.642Z,98794.17
2018-05-17T09:01:33.130Z,98788.27
2018-05-17T09:04:00.603Z,98794.34
2018-05-17T09:06:28.127Z,98786.03
2018-05-17T09:08:55.614Z,98788.80
2018-05-17T09:11:23.107Z,98795.27
2018-05-17T09:13:50.721Z,98793.09
2018-05-17T09:16:18.131Z,98797.08
2018-05-17T09:18:45.691Z,98792.42
2018-05-17T09:21:13.183Z,98803.84
2018-05-17T09:23:40.672Z,98799.77
2018-05-17T09:26:08.210Z,98799.86
2018-05-17T09:28:35.766Z,98797.18
2018-05-17T09:31:03.323Z,98788.83
2018-05-17T09:33:30.890Z,98790.72
2018-05-17T09:35:58.383Z,98794.45
2018-05-17T09:38:25.897Z,98795.72
2018-05-17T09:40:53.413Z,98794.61
2018-05-17T09:43:20.908Z,98801.61
2018-05-17T09:45:48.406Z,98791.83
2018-05-17T09:48:15.906Z,98787.29
2018-05-17T09:50:43.452Z,98784.70
2018-05-17T09:53:10.935Z,98782.59
2018-05-17T09:55:38.518Z,98782.50
2018-05-17T09:58:06.074Z,98781.27
2018-05-17T10:00:33.575Z,98782.64
2018-05-17T10:03:01.086Z,98780.11
2018-05-17T10:05:28.571Z,98775.45
2018-05-17T10:07:56.163Z,98789.02
2018-05-17T10:10:23.870Z,98787.98
2018-05-17T10:12:51.375Z,98786.50
2018-05-17T10:15:18.863Z,98787.66
2018-05-17T10:17:46.447Z,98774.78
2018-05-17T10:20:13.987Z,98775.25
2018-05-17T10:22:41.522Z,98774.20
2018-05-17T10:25:08.994Z,98785.59
2018-05-17T10:27:36.487Z,98780.27
2018-05-17T10:30:03.977Z,98778.28
2018-05-17T10:32:31.503Z,98783.13
2018-05-17T10:34:58.991Z,98779.36
2018-05-17T10:37:26.514Z,98780.73
2018-05-17T10:39:54.107Z,98775.77
2018-05-17T10:42:21.675Z,98775.69
2018-05-17T10:44:49.150Z,98782.48
2018-05-17T10:47:16.717Z,98783.55
2018-05-17T10:49:44.159Z,98781.26
2018-05-17T10:52:11.676Z,98784.50
2018-05-17T10:54:39.171Z,98788.61
2018-05-17T10:57:06.787Z,98786.27
2018-05-17T10:59:34.226Z,98787.94
2018-05-17T11:02:01.843Z,98789.33
2018-05-17T11:04:29.451Z,98790.89
2018-05-17T11:06:56.935Z,98782.58
2018-05-17T11:09:24.434Z,98782.55
2018-05-17T11:11:51.929Z,98788.29
2018-05-17T11:14:19.466Z,98792.82
2018-05-17T11:16:46.935Z,98799.23
2018-05-17T11:19:14.456Z,98794.07
2018-05-17T11:21:41.957Z,98802.01
2018-05-17T11:24:09.447Z,98798.86
2018-05-17T11:26:36.922Z,98802.45
2018-05-17T11:29:04.417Z,98806.34
2018-05-17T11:31:31.913Z,98803.09
2018-05-17T11:33:59.402Z,98802.88
2018-05-17T11:36:26.881Z,98805.40
2018-05-17T11:38:54.474Z,98806.28
2018-05-17T11:41:21.948Z,98800.44
2018-05-17T11:43:49.511Z,98798.34
2018-05-17T11:46:17.075Z,98800.67
2018-05-17T11:48:44.630Z,98804.81
2018-05-17T11:51:12.122Z,98792.11
2018-05-17T11:53:39.619Z,98794.82
2018-05-17T11:56:07.103Z,98784.80
2018-05-17T11:58:34.613Z,98785.84
2018-05-17T12:01:02.091Z,98789.02
2018-05-17T12:03:29.687Z,98790.27
2018-05-17T12:05:57.158Z,98796.77
2018-05-17T12:08:24.656Z,98793.86
2018-05-17T12:10:52.128Z,98794.64
2018-05-17T12:13:19.628Z,98790.28
2018-05-17T12:15:47.138Z,98788.86
2018-05-17T12:18:14.631Z,98791.98
2018-05-17T12:20:42.120Z,98793.93
2018-05-17T12:23:09.666Z,98797.30
2018-05-17T12:25:37.162Z,98801.77
2018-05-17T12:28:04.671Z,98799.77
2018-05-17T12:30:32.215Z,98801.58
2018-05-17T12:32:59.686Z,98797.20
2018-05-17T12:35:27.183Z,98798.29
2018-05-17T12:37:54.797Z,98794.25
2018-05-17T12:40:22.291Z,98797.97
2018-05-17T12:42:49.904Z,98788.69
2018-05-17T12:45:17.395Z,98786.64
2018-05-17T12:47:44.941Z,98779.98
2018-05-17T12:50:12.451Z,98781.32
2018-05-17T12:52:39.939Z,98776.67
2018-05-17T12:55:07.459Z,98780.38
2018-05-17T12:57:35.003Z,98779.92
2018-05-17T13:00:02.507Z,98775.17
2018-05-17T13:02:30.013Z,98776.55
2018-05-17T13:04:57.599Z,98771.63
2018-05-17T13:07:25.148Z,98765.99
2018-05-17T13:09:52.631Z,98768.05
2018-05-17T13:12:20.151Z,98767.36
2018-05-17T13:14:47.936Z,98774.05
2018-05-17T13:17:15.451Z,98770.44
2018-05-17T13:19:42.965Z,98774.11
2018-05-17T13:22:10.515Z,98774.20
2018-05-17T13:24:38.448Z,98775.45
2018-05-17T13:27:05.919Z,98771.14
2018-05-17T13:29:33.425Z,98770.56
2018-05-17T13:32:00.900Z,98771.44
2018-05-17T13:34:28.406Z,98762.98
2018-05-17T13:36:55.894Z,98758.98
2018-05-17T13:39:23.368Z,98755.05
2018-05-17T13:41:50.883Z,98748.17
2018-05-17T13:44:18.366Z,98740.59
2018-05-17T13:46:45.885Z,98743.95
2018-05-17T13:49:13.500Z,98747.58
2018-05-17T13:51:40.963Z,98742.36
2018-05-17T13:54:08.450Z,98742.94
2018-05-17T13:56:35.950Z,98743.95
2018-05-17T13:59:03.435Z,98743.25
2018-05-17T14:01:30.934Z,98751.54
2018-05-17T14:03:58.459Z,98745.91
2018-05-17T14:06:25.954Z,98747.67
2018-05-17T14:08:53.479Z,98752.55
2018-05-17T14:11:20.979Z,98750.33
2018-05-17T14:13:48.528Z,98744.43
2018-05-17T14:16:16.034Z,98748.67
2018-05-17T14:18:43.509Z,98749.45
2018-05-17T14:21:10.997Z,98736.13
2018-05-17T14:23:38.667Z,98733.39
2018-05-17T14:26:06.173Z,98733.81
2018-05-17T14:28:33.779Z,98727.97
2018-05-17T14:31:01.294Z,98735.56
2018-05-17T14:33:28.783Z,98747.19
2018-05-17T14:35:56.254Z,98742.96
2018-05-17T14:38:23.743Z,98740.94
2018-05-17T14:40:53.702Z,98732.09
2018-05-17T14:43:22.090Z,98734.20
2018-05-17T14:45:49.865Z,98733.27
2018-05-17T14:48:17.718Z,98737.66
2018-05-17T14:50:45.194Z,98726.55
2018-05-17T14:53:12.705Z,98728.95
2018-05-17T14:55:40.174Z,98731.84
2018-05-17T14:58:07.687Z,98739.05
2018-05-17T15:00:35.219Z,98735.24
2018-05-17T15:03:02.737Z,98741.02
2018-05-17T15:05:30.212Z,98742.06
2018-05-17T15:07:57.709Z,98736.27
2018-05-17T15:10:25.179Z,98742.41
2018-05-17T15:12:52.674Z,98740.73
2018-05-17T15:15:20.162Z,98728.46
2018-05-17T15:17:47.722Z,98728.58
2018-05-17T15:20:15.266Z,98722.57
2018-05-17T15:22:42.763Z,98733.34
2018-05-17T15:25:10.345Z,98711.66
2018-05-17T15:27:37.898Z,98711.48
2018-05-17T15:30:06.139Z,98704.09
2018-05-17T15:32:33.630Z,98715.69
2018-05-17T15:35:01.179Z,98708.64
2018-05-17T15:37:28.675Z,98718.92
2018-05-17T15:39:56.178Z,98717.44
2018-05-17T15:42:23.687Z,98711.52
2018-05-17T15:44:55.260Z,98718.01
2018-05-17T15:47:22.927Z,98713.23
2018-05-17T15:49:50.435Z,98719.16
2018-05-17T15:52:18.005Z,98722.66
2018-05-17T15:54:45.530Z,98734.52
2018-05-17T15:57:13.023Z,98732.58
2018-05-17T15:59:40.550Z,98731.89
2018-05-17T16:02:08.046Z,98735.85
2018-05-17T16:04:36.429Z,98732.05
2018-05-17T16:07:04.184Z,98736.48
2018-05-17T16:09:31.806Z,98745.10
2018-05-17T16:11:59.283Z,98748.11
2018-05-17T16:14:26.949Z,98741.75
2018-05-17T16:16:54.508Z,98742.13
2018-05-17T16:19:22.054Z,98752.63
2018-05-17T16:21:49.619Z,98743.81
2018-05-17T16:24:18.295Z,98744.03
2018-05-17T16:26:45.854Z,98748.42
2018-05-17T16:29:13.370Z,98756.02
2018-05-17T16:31:40.883Z,98767.34
2018-05-17T16:34:08.376Z,98767.13
2018-05-17T16:36:35.855Z,98760.22
2018-05-17T16:39:03.487Z,98751.94
2018-05-17T16:41:31.010Z,98753.95
2018-05-17T16:43:58.607Z,98759.94
2018-05-17T16:46:26.070Z,98761.12
2018-05-17T16:48:53.635Z,98762.67
2018-05-17T16:51:21.191Z,98769.41
2018-05-17T16:53:48.685Z,98780.38
2018-05-17T16:56:16.178Z,98785.89
2018-05-17T16:58:43.710Z,98783.63
2018-05-17T17:01:11.180Z,98785.54
2018-05-17T17:03:38.658Z,98789.96
2018-05-17T17:06:06.147Z,98794.34
2018-05-17T17:08:33.641Z,98798.98
2018-05-17T17:11:01.139Z,98798.39
2018-05-17T17:13:28.603Z,98807.65
2018-05-17T17:15:56.121Z,98808.94
2018-05-17T17:18:23.606Z,98807.06
2018-05-17T17:20:51.098Z,98806.12
2018-05-17T17:23:18.600Z,98807.91
2018-05-17T17:25:46.184Z,98815.91
2018-05-17T17:28:13.764Z,98819.19
2018-05-17T17:30:41.296Z,98813.99
2018-05-17T17:33:08.771Z,98813.44
2018-05-17T17:35:36.304Z,98817.95
2018-05-17T17:38:03.810Z,98822.69
2018-05-17T17:40:36.910Z,98814.45
2018-05-17T17:43:04.447Z,98821.27
2018-05-17T17:45:31.945Z,98825.02
2018-05-17T17:47:59.534Z,98815.67
2018-05-17T17:50:27.014Z,98822.13
2018-05-17T17:52:54.492Z,98822.80
2018-05-17T17:55:22.007Z,98820.06
2018-05-17T17:57:49.519Z,98819.16
2018-05-17T18:00:17.025Z,98817.97
2018-05-17T18:02:44.482Z,98818.95
2018-05-17T18:05:12.115Z,98815.30
2018-05-17T18:07:39.529Z,98811.03
2018-05-17T18:10:06.999Z,98813.41
2018-05-17T18:12:34.601Z,98814.11
2018-05-17T18:15:02.078Z,98813.48
2018-05-17T18:17:29.574Z,98807.59
2018-05-17T18:19:57.087Z,98806.66
2018-05-17T18:22:24.594Z,98810.80
2018-05-17T18:24:52.157Z,98811.86
2018-05-17T18:27:20.706Z,98811.81
2018-05-17T18:29:48.187Z,98815.59
2018-05-17T18:32:15.679Z,98802.84
2018-05-17T18:34:43.155Z,98809.78
2018-05-17T18:37:10.651Z,98809.63
2018-05-17T18:39:38.220Z,98806.07
2018-05-17T18:42:05.767Z,98806.56
2018-05-17T18:44:33.282Z,98810.30
2018-05-17T18:47:00.774Z,98811.30
2018-05-17T18:49:28.332Z,98810.73
2018-05-17T18:51:55.892Z,98815.12
2018-05-17T18:54:23.450Z,98819.61
2018-05-17T18:56:51.016Z,98823.88
2018-05-17T18:59:18.456Z,98827.19
2018-05-17T19:01:46.027Z,98826.64
2018-05-17T19:04:13.578Z,98833.16
2018-05-17T19:09:13.957Z,98845.98
2018-05-17T19:11:41.486Z,98844.36
2018-05-17T19:14:09.028Z,98843.18
2018-05-17T19:16:36.446Z,98847.84
2018-05-17T19:19:03.950Z,98862.62
2018-05-17T19:21:31.532Z,98869.69
2018-05-17T19:23:59.034Z,98864.11
2018-05-17T19:26:26.511Z,98867.30
2018-05-17T19:28:54.090Z,98870.12
2018-05-17T19:31:23.685Z,98877.42
2018-05-17T19:33:51.232Z,98882.17
2018-05-17T19:36:18.732Z,98890.86
2018-05-17T19:38:46.239Z,98891.41
2018-05-17T19:41:13.715Z,98889.88
2018-05-17T19:43:41.215Z,98888.04
2018-05-17T19:46:08.773Z,98889.02
2018-05-17T19:48:36.329Z,98889.81
2018-05-17T19:51:03.802Z,98892.28
2018-05-17T19:53:31.306Z,98891.22
2018-05-17T19:55:58.811Z,98887.89
2018-05-17T19:58:26.304Z,98883.74
2018-05-17T20:00:53.830Z,98892.36
2018-05-17T20:03:21.475Z,98887.02
2018-05-17T20:05:48.950Z,98887.35
2018-05-17T20:08:16.481Z,98896.31
2018-05-17T20:10:44.076Z,98886.66
2018-05-17T20:13:11.570Z,98886.63
2018-05-17T20:15:39.056Z,98884.80
2018-05-17T20:18:06.622Z,98883.09
2018-05-17T20:20:34.183Z,98881.92
2018-05-17T20:23:01.675Z,98888.45
2018-05-17T20:25:29.186Z,98888.23
2018-05-17T20:27:56.758Z,98884.09
2018-05-17T20:30:24.256Z,98893.03
2018-05-17T20:32:51.779Z,98894.50
2018-05-17T20:35:19.273Z,98893.86
2018-05-17T20:37:46.747Z,98903.86
2018-05-17T20:40:14.255Z,98906.27
2018-05-17T20:42:41.744Z,98903.41
2018-05-17T20:45:09.243Z,98907.92
2018-05-17T20:47:36.752Z,98902.02
2018-05-17T20:50:04.288Z,98904.70
2018-05-17T20:52:31.777Z,98900.22
2018-05-17T20:54:59.366Z,98901.33
2018-05-17T20:57:26.842Z,98900.60
2018-05-17T20:59:54.383Z,98906.73
2018-05-17T21:02:21.854Z,98899.80
2018-05-17T21:04:50.015Z,98894.13
2018-05-17T21:07:17.535Z,98894.55
2018-05-17T21:09:45.054Z,98895.34
2018-05-17T21:12:12.527Z,98894.65
2018-05-17T21:14:40.074Z,98899.59
2018-05-17T21:17:07.545Z,98897.15
2018-05-17T21:19:35.046Z,98892.41
2018-05-17T21:22:02.523Z,98896.13
2018-05-17T21:24:30.044Z,98896.89
2018-05-17T21:26:57.538Z,98902.13
2018-05-17T21:29:25.043Z,98891.59
2018-05-17T21:31:52.669Z,98893.92
2018-05-17T21:34:20.282Z,98897.36
2018-05-17T21:36:47.779Z,98896.09
2018-05-17T21:39:15.279Z,98898.58
2018-05-17T21:41:42.859Z,98894.18
2018-05-17T21:44:10.329Z,98893.29
2018-05-17T21:46:37.818Z,98894.44
2018-05-17T21:49:05.320Z,98894.44
2018-05-17T21:51:32.851Z,98895.03
2018-05-17T21:54:00.369Z,98899.12
2018-05-17T21:56:27.895Z,98902.91
2018-05-17T21:58:55.375Z,98903.09
2018-05-17T22:01:22.871Z,98903.52
2018-05-17T22:03:50.351Z,98896.47
2018-05-17T22:06:17.870Z,98893.63
2018-05-17T22:08:45.339Z,98884.81
2018-05-17T22:11:12.834Z,98882.88
2018-05-17T22:13:40.309Z,98880.72
2018-05-17T22:16:07.803Z,98882.58
2018-05-17T22:18:35.344Z,98878.64
2018-05-17T22:21:02.883Z,98883.88
2018-05-17T22:23:30.449Z,98879.87
2018-05-17T22:26:03.960Z,98882.02
2018-05-17T22:28:31.553Z,98878.68
2018-05-17T22:30:59.125Z,98885.30
2018-05-17T22:33:27.179Z,98889.83
2018-05-17T22:35:54.703Z,98888.18
2018-05-17T22:38:22.166Z,98888.20
2018-05-17T22:40:49.634Z,98879.67
2018-05-17T22:43:17.135Z,98882.84
2018-05-17T22:45:44.611Z,98881.98
2018-05-17T22:48:12.982Z,98881.98
2018-05-17T22:50:40.458Z,98880.64
2018-05-17T22:53:07.945Z,98873.03
2018-05-17T22:55:35.410Z,98872.56
2018-05-17T22:58:14.639Z,98870.06
2018-05-17T23:00:42.107Z,98868.23
2018-05-17T23:03:09.641Z,98870.89
2018-05-17T23:05:37.112Z,98866.26
2018-05-17T23:08:04.618Z,98866.45
2018-05-17T23:10:32.093Z,98870.64
2018-05-17T23:12:59.603Z,98869.73
2018-05-17T23:15:27.075Z,98866.50
2018-05-17T23:17:54.568Z,98865.41
2018-05-17T23:20:22.083Z,98864.06
2018-05-17T23:22:49.575Z,98866.64
2018-05-17T23:25:17.039Z,98868.94
2018-05-17T23:27:44.533Z,98865.95
2018-05-17T23:30:12.019Z,98865.95
2018-05-17T23:32:39.511Z,98858.59
2018-05-17T23:35:06.979Z,98859.57
2018-05-17T23:37:34.478Z,98856.54
2018-05-17T23:40:13.970Z,98858.34
2018-05-17T23:42:41.456Z,98853.88
2018-05-17T23:45:08.935Z,98854.16
2018-05-17T23:47:36.492Z,98853.24
2018-05-17T23:50:03.922Z,98854.52
2018-05-17T23:52:31.411Z,98860.53
2018-05-17T23:54:58.883Z,98862.00
2018-05-17T23:57:26.378Z,98858.91
2018-05-17T23:59:53.842Z,98862.23
